Huntley, Illinois
Current Conditions -  °F | °C
As of 7:22 PM on Monday 26 Jan 2015 (Local Time) from KDPA Reporting Station
Haze Haze  
Wind Chill: 17°   Ceiling: 600
Heat Index: 25°   Visibility: 3mi
Dew Point: 24°   Wind: 7mph
Humidity: 96%   Direction: 170°S
Pressure: 29.89"   Gusts: NA
Location:  42.17°N, 88.43°W
Report Text: KDPA 270122Z 17006KT 3SM BR OVC006 M04/M04 A2989 RMK AO2 FZRAE16 CIG 004V007 P0000 I1000 T10391044
Loading
Personal Weather Stations






























Interactive Weather Map New forecast layout! Learn more

10-Day Weather Forecast

Advertisements
Track Severe Weather on mobile